N2708E KRDU-KPBI
Flight info
| Callsign | N2708E |
|---|---|
| Flight time | 1h 27m |
| Altitude | 40000 |
| Route | HOOKZ5 DAWTS MRPIT CAKET Q97 KENLL CPTAN3 |
| Aircraft | B737/M-SDE2E3FGHIRWXY/LB1 |
Departure
| Time | 2026-05-05 16:14 |
|---|---|
| Airport | Raleigh-Durham International Airport (KRDU) |
Arrival
| Time | 2026-05-05 17:42 |
|---|---|
| Airport | Palm Beach International Airport (KPBI) |
| Time | Latitude | Longitude | Altitude | Speed | Heading |
|---|---|---|---|---|---|
| 2026-05-05 15:58 | 35.89245 | -78.77508 | 391 ft | 0 kts | 119° |
| 2026-05-05 16:12 | 35.89245 | -78.77497 | 391 ft | 2 kts | 81° |
| 2026-05-05 16:12 | 35.89282 | -78.77507 | 391 ft | 6 kts | 302° |
| 2026-05-05 16:13 | 35.89262 | -78.77678 | 391 ft | 10 kts | 314° |
| 2026-05-05 16:13 | 35.89315 | -78.77744 | 391 ft | 11 kts | 315° |
| 2026-05-05 16:13 | 35.89361 | -78.77820 | 392 ft | 11 kts | 268° |
| 2026-05-05 16:14 | 35.88886 | -78.78421 | 392 ft | 132 kts | 226° |
| 2026-05-05 16:14 | 35.87004 | -78.80656 | 1758 ft | 207 kts | 216° |
| 2026-05-05 16:15 | 35.84315 | -78.82020 | 3861 ft | 220 kts | 203° |
| 2026-05-05 16:15 | 35.81260 | -78.82893 | 5828 ft | 238 kts | 189° |
| 2026-05-05 16:16 | 35.77860 | -78.83468 | 7877 ft | 253 kts | 190° |
| 2026-05-05 16:16 | 35.74333 | -78.84102 | 10143 ft | 261 kts | 190° |
| 2026-05-05 16:17 | 35.70404 | -78.84832 | 11030 ft | 315 kts | 190° |
| 2026-05-05 16:17 | 35.70141 | -78.84881 | 11101 ft | 317 kts | 190° |
| 2026-05-05 16:18 | 35.65966 | -78.85658 | 12714 ft | 334 kts | 191° |
| 2026-05-05 16:18 | 35.63645 | -78.86091 | 13675 ft | 341 kts | 191° |
| 2026-05-05 16:18 | 35.58869 | -78.86985 | 15618 ft | 352 kts | 191° |
| 2026-05-05 16:19 | 35.56428 | -78.87442 | 16586 ft | 358 kts | 192° |
| 2026-05-05 16:19 | 35.53950 | -78.87907 | 17546 ft | 364 kts | 192° |
| 2026-05-05 16:19 | 35.48862 | -78.88860 | 19265 ft | 377 kts | 192° |
| 2026-05-05 16:20 | 35.43579 | -78.89842 | 20776 ft | 391 kts | 192° |
| 2026-05-05 16:20 | 35.38089 | -78.90759 | 22281 ft | 405 kts | 191° |
| 2026-05-05 16:21 | 35.32414 | -78.91691 | 23717 ft | 418 kts | 192° |
| 2026-05-05 16:22 | 35.23513 | -78.91848 | 25547 ft | 441 kts | 175° |
| 2026-05-05 16:22 | 35.17398 | -78.90693 | 26747 ft | 450 kts | 175° |
| 2026-05-05 16:23 | 35.11130 | -78.89589 | 27834 ft | 459 kts | 175° |
| 2026-05-05 16:23 | 35.07946 | -78.89055 | 28370 ft | 464 kts | 175° |
| 2026-05-05 16:23 | 35.01491 | -78.87984 | 29420 ft | 473 kts | 175° |
| 2026-05-05 16:24 | 34.98211 | -78.87643 | 29852 ft | 472 kts | 186° |
| 2026-05-05 16:24 | 34.95009 | -78.88310 | 30392 ft | 466 kts | 198° |
| 2026-05-05 16:24 | 34.88642 | -78.90222 | 31001 ft | 477 kts | 198° |
| 2026-05-05 16:25 | 34.85402 | -78.91181 | 31273 ft | 482 kts | 198° |
| 2026-05-05 16:25 | 34.78818 | -78.93065 | 31888 ft | 489 kts | 198° |
| 2026-05-05 16:25 | 34.75495 | -78.93995 | 32267 ft | 491 kts | 198° |
| 2026-05-05 16:26 | 34.68869 | -78.95839 | 33049 ft | 493 kts | 198° |
| 2026-05-05 16:26 | 34.62154 | -78.97710 | 33716 ft | 497 kts | 199° |
| 2026-05-05 16:27 | 34.58779 | -78.98651 | 34076 ft | 498 kts | 199° |
| 2026-05-05 16:27 | 34.55395 | -78.99593 | 34393 ft | 500 kts | 199° |
| 2026-05-05 16:27 | 34.52007 | -79.00536 | 34734 ft | 500 kts | 199° |
| 2026-05-05 16:27 | 34.48619 | -79.01477 | 35073 ft | 499 kts | 199° |
| 2026-05-05 16:28 | 34.45234 | -79.02448 | 35350 ft | 498 kts | 202° |
| 2026-05-05 16:28 | 34.41987 | -79.03811 | 35630 ft | 490 kts | 212° |
| 2026-05-05 16:28 | 34.38985 | -79.05685 | 35972 ft | 483 kts | 217° |
| 2026-05-05 16:28 | 34.36044 | -79.07669 | 36155 ft | 486 kts | 218° |
| 2026-05-05 16:29 | 34.33082 | -79.09693 | 36267 ft | 491 kts | 218° |
| 2026-05-05 16:29 | 34.30103 | -79.11719 | 36572 ft | 491 kts | 218° |
| 2026-05-05 16:29 | 34.27132 | -79.13718 | 36980 ft | 489 kts | 218° |
| 2026-05-05 16:29 | 34.24154 | -79.15703 | 37322 ft | 488 kts | 218° |
| 2026-05-05 16:30 | 34.21166 | -79.17683 | 37551 ft | 491 kts | 218° |
| 2026-05-05 16:30 | 34.18168 | -79.19664 | 37807 ft | 492 kts | 218° |
| 2026-05-05 16:30 | 34.15165 | -79.21641 | 38138 ft | 491 kts | 218° |
| 2026-05-05 16:30 | 34.12169 | -79.23610 | 38480 ft | 490 kts | 218° |
| 2026-05-05 16:31 | 34.09175 | -79.25577 | 38769 ft | 490 kts | 218° |
| 2026-05-05 16:31 | 34.06175 | -79.27548 | 38999 ft | 490 kts | 218° |
| 2026-05-05 16:31 | 34.03186 | -79.29509 | 39316 ft | 488 kts | 218° |
| 2026-05-05 16:31 | 34.00221 | -79.31451 | 39680 ft | 483 kts | 218° |
| 2026-05-05 16:32 | 33.97285 | -79.33372 | 40091 ft | 478 kts | 218° |
| 2026-05-05 16:32 | 33.94390 | -79.35270 | 40119 ft | 482 kts | 218° |
| 2026-05-05 16:32 | 33.88500 | -79.39133 | 40136 ft | 481 kts | 218° |
| 2026-05-05 16:33 | 33.82658 | -79.42948 | 40109 ft | 475 kts | 218° |
| 2026-05-05 16:33 | 33.77008 | -79.46631 | 40128 ft | 469 kts | 218° |
| 2026-05-05 16:34 | 33.71326 | -79.50332 | 40128 ft | 464 kts | 218° |
| 2026-05-05 16:34 | 33.65736 | -79.53972 | 40137 ft | 462 kts | 218° |
| 2026-05-05 16:35 | 33.62952 | -79.55786 | 40152 ft | 466 kts | 218° |
| 2026-05-05 16:35 | 33.59221 | -79.58217 | 40145 ft | 471 kts | 218° |
| 2026-05-05 16:36 | 33.53468 | -79.61954 | 40145 ft | 475 kts | 218° |
| 2026-05-05 16:36 | 33.47961 | -79.65516 | 40137 ft | 475 kts | 218° |
| 2026-05-05 16:37 | 33.42476 | -79.69052 | 40130 ft | 470 kts | 218° |
| 2026-05-05 16:37 | 33.36772 | -79.72730 | 40129 ft | 466 kts | 218° |
| 2026-05-05 16:38 | 33.31074 | -79.76405 | 40134 ft | 464 kts | 218° |
| 2026-05-05 16:38 | 33.25442 | -79.80033 | 40055 ft | 463 kts | 219° |
| 2026-05-05 16:39 | 33.19787 | -79.83668 | 40142 ft | 461 kts | 219° |
| 2026-05-05 16:39 | 33.14134 | -79.87300 | 40143 ft | 462 kts | 219° |
| 2026-05-05 16:40 | 33.08459 | -79.90940 | 40149 ft | 464 kts | 219° |
| 2026-05-05 16:40 | 33.02755 | -79.94591 | 40148 ft | 466 kts | 219° |
| 2026-05-05 16:41 | 32.97022 | -79.98254 | 40152 ft | 468 kts | 218° |
| 2026-05-05 16:41 | 32.91265 | -80.01927 | 40147 ft | 470 kts | 218° |
| 2026-05-05 16:42 | 32.85492 | -80.05603 | 40148 ft | 471 kts | 218° |
| 2026-05-05 16:42 | 32.79757 | -80.09251 | 40146 ft | 471 kts | 218° |
| 2026-05-05 16:43 | 32.73983 | -80.12917 | 40138 ft | 470 kts | 219° |
| 2026-05-05 16:43 | 32.68222 | -80.16571 | 40146 ft | 469 kts | 219° |
| 2026-05-05 16:44 | 32.62474 | -80.20212 | 40142 ft | 468 kts | 219° |
| 2026-05-05 16:44 | 32.56742 | -80.23839 | 40144 ft | 467 kts | 219° |
| 2026-05-05 16:45 | 32.51010 | -80.27460 | 40111 ft | 466 kts | 219° |
| 2026-05-05 16:45 | 32.45302 | -80.31071 | 40130 ft | 465 kts | 219° |
| 2026-05-05 16:46 | 32.39599 | -80.34683 | 40134 ft | 465 kts | 219° |
| 2026-05-05 16:46 | 32.33902 | -80.38286 | 40133 ft | 465 kts | 219° |
| 2026-05-05 16:47 | 32.28199 | -80.41887 | 40134 ft | 465 kts | 219° |
| 2026-05-05 16:47 | 32.22490 | -80.45486 | 40126 ft | 465 kts | 220° |
| 2026-05-05 16:48 | 32.16783 | -80.49077 | 40126 ft | 465 kts | 220° |
| 2026-05-05 16:48 | 32.11069 | -80.52670 | 40127 ft | 466 kts | 220° |
| 2026-05-05 16:49 | 32.05786 | -80.55985 | 40120 ft | 465 kts | 220° |
| 2026-05-05 16:49 | 32.00065 | -80.59571 | 40115 ft | 466 kts | 220° |
| 2026-05-05 16:50 | 31.94339 | -80.63155 | 40119 ft | 466 kts | 220° |
| 2026-05-05 16:50 | 31.88610 | -80.66736 | 40118 ft | 467 kts | 220° |
| 2026-05-05 16:51 | 31.82868 | -80.70321 | 40121 ft | 467 kts | 220° |
| 2026-05-05 16:51 | 31.77121 | -80.73902 | 40128 ft | 468 kts | 220° |
| 2026-05-05 16:52 | 31.71365 | -80.77484 | 40101 ft | 468 kts | 220° |
| 2026-05-05 16:52 | 31.65611 | -80.81059 | 40115 ft | 468 kts | 220° |
| 2026-05-05 16:53 | 31.59847 | -80.84637 | 40120 ft | 469 kts | 220° |
| 2026-05-05 16:53 | 31.54078 | -80.88213 | 40119 ft | 469 kts | 220° |
| 2026-05-05 16:54 | 31.48308 | -80.91783 | 40088 ft | 468 kts | 220° |
| 2026-05-05 16:54 | 31.42564 | -80.95332 | 40114 ft | 467 kts | 220° |
| 2026-05-05 16:55 | 31.36818 | -80.98880 | 40117 ft | 466 kts | 220° |
| 2026-05-05 16:55 | 31.31086 | -81.02414 | 40121 ft | 466 kts | 220° |
| 2026-05-05 16:56 | 31.25113 | -81.05480 | 40121 ft | 487 kts | 207° |
| 2026-05-05 16:56 | 31.21743 | -81.06273 | 40118 ft | 503 kts | 197° |
| 2026-05-05 16:56 | 31.18168 | -81.06488 | 40127 ft | 510 kts | 191° |
| 2026-05-05 16:57 | 31.11100 | -81.06522 | 40124 ft | 512 kts | 190° |
| 2026-05-05 16:57 | 31.03985 | -81.06551 | 40117 ft | 510 kts | 191° |
| 2026-05-05 16:58 | 30.98097 | -81.06647 | 40117 ft | 509 kts | 191° |
| 2026-05-05 16:58 | 30.91015 | -81.06802 | 40102 ft | 508 kts | 191° |
| 2026-05-05 16:59 | 30.84223 | -81.06951 | 40113 ft | 508 kts | 191° |
| 2026-05-05 16:59 | 30.77110 | -81.06613 | 40124 ft | 516 kts | 184° |
| 2026-05-05 17:00 | 30.69948 | -81.05735 | 40120 ft | 518 kts | 182° |
| 2026-05-05 17:00 | 30.62774 | -81.04833 | 40090 ft | 517 kts | 183° |
| 2026-05-05 17:01 | 30.55623 | -81.04007 | 40109 ft | 516 kts | 183° |
| 2026-05-05 17:01 | 30.48478 | -81.03224 | 40120 ft | 516 kts | 183° |
| 2026-05-05 17:02 | 30.41327 | -81.02447 | 40115 ft | 516 kts | 183° |
| 2026-05-05 17:02 | 30.34171 | -81.01666 | 40119 ft | 516 kts | 183° |
| 2026-05-05 17:03 | 30.27015 | -81.00883 | 40116 ft | 516 kts | 183° |
| 2026-05-05 17:03 | 30.19862 | -81.00101 | 40114 ft | 516 kts | 183° |
| 2026-05-05 17:04 | 30.12711 | -80.99320 | 40118 ft | 516 kts | 183° |
| 2026-05-05 17:04 | 30.05554 | -80.98540 | 40108 ft | 516 kts | 183° |
| 2026-05-05 17:05 | 29.98418 | -80.97763 | 40113 ft | 516 kts | 183° |
| 2026-05-05 17:05 | 29.91271 | -80.96987 | 40118 ft | 516 kts | 183° |
| 2026-05-05 17:06 | 29.84173 | -80.96217 | 40114 ft | 516 kts | 183° |
| 2026-05-05 17:06 | 29.77024 | -80.95442 | 40099 ft | 516 kts | 183° |
| 2026-05-05 17:07 | 29.69886 | -80.94669 | 40109 ft | 515 kts | 183° |
| 2026-05-05 17:07 | 29.62738 | -80.93897 | 40110 ft | 516 kts | 183° |
| 2026-05-05 17:08 | 29.55596 | -80.93127 | 40108 ft | 516 kts | 183° |
| 2026-05-05 17:08 | 29.48407 | -80.92352 | 40096 ft | 515 kts | 183° |
| 2026-05-05 17:09 | 29.41318 | -80.91589 | 40106 ft | 515 kts | 183° |
| 2026-05-05 17:09 | 29.34185 | -80.90823 | 40134 ft | 516 kts | 183° |
| 2026-05-05 17:10 | 29.27020 | -80.90057 | 40123 ft | 518 kts | 183° |
| 2026-05-05 17:10 | 29.19842 | -80.89288 | 39916 ft | 522 kts | 182° |
| 2026-05-05 17:11 | 29.16226 | -80.88901 | 39674 ft | 523 kts | 182° |
| 2026-05-05 17:11 | 29.12591 | -80.88514 | 39460 ft | 528 kts | 182° |
| 2026-05-05 17:11 | 29.08922 | -80.88123 | 39225 ft | 531 kts | 182° |
| 2026-05-05 17:11 | 29.05243 | -80.87728 | 38992 ft | 531 kts | 182° |
| 2026-05-05 17:12 | 29.01561 | -80.87332 | 38753 ft | 532 kts | 182° |
| 2026-05-05 17:12 | 28.97871 | -80.86938 | 38484 ft | 532 kts | 182° |
| 2026-05-05 17:12 | 28.94188 | -80.86401 | 38184 ft | 540 kts | 173° |
| 2026-05-05 17:12 | 28.90580 | -80.85090 | 37900 ft | 546 kts | 165° |
| 2026-05-05 17:13 | 28.87044 | -80.83575 | 37633 ft | 542 kts | 163° |
| 2026-05-05 17:13 | 28.83551 | -80.82035 | 37347 ft | 536 kts | 163° |
| 2026-05-05 17:13 | 28.80076 | -80.80531 | 37069 ft | 533 kts | 164° |
| 2026-05-05 17:13 | 28.76598 | -80.79074 | 36821 ft | 533 kts | 165° |
| 2026-05-05 17:14 | 28.73097 | -80.77643 | 36570 ft | 535 kts | 165° |
| 2026-05-05 17:14 | 28.69589 | -80.76225 | 36321 ft | 535 kts | 165° |
| 2026-05-05 17:14 | 28.66082 | -80.74805 | 36133 ft | 534 kts | 165° |
| 2026-05-05 17:14 | 28.62577 | -80.73381 | 36067 ft | 535 kts | 165° |
| 2026-05-05 17:15 | 28.55564 | -80.70531 | 36077 ft | 535 kts | 165° |
| 2026-05-05 17:15 | 28.48598 | -80.67701 | 36105 ft | 529 kts | 165° |
| 2026-05-05 17:16 | 28.41709 | -80.64910 | 36110 ft | 529 kts | 165° |
| 2026-05-05 17:16 | 28.34700 | -80.62076 | 35361 ft | 536 kts | 165° |
| 2026-05-05 17:17 | 28.31233 | -80.60674 | 34597 ft | 536 kts | 165° |
| 2026-05-05 17:17 | 28.27675 | -80.59235 | 33732 ft | 536 kts | 165° |
| 2026-05-05 17:17 | 28.24211 | -80.57836 | 32907 ft | 534 kts | 165° |
| 2026-05-05 17:17 | 28.20711 | -80.56424 | 32017 ft | 533 kts | 165° |
| 2026-05-05 17:18 | 28.17231 | -80.55022 | 31072 ft | 532 kts | 165° |
| 2026-05-05 17:18 | 28.13739 | -80.53615 | 30055 ft | 531 kts | 164° |
| 2026-05-05 17:18 | 28.10290 | -80.52227 | 28990 ft | 528 kts | 165° |
| 2026-05-05 17:18 | 28.06970 | -80.50887 | 28202 ft | 511 kts | 165° |
| 2026-05-05 17:19 | 28.03673 | -80.49557 | 27400 ft | 497 kts | 165° |
| 2026-05-05 17:19 | 28.00439 | -80.48258 | 26673 ft | 490 kts | 165° |
| 2026-05-05 17:19 | 27.97248 | -80.46979 | 25920 ft | 484 kts | 165° |
| 2026-05-05 17:19 | 27.94100 | -80.45718 | 25470 ft | 473 kts | 165° |
| 2026-05-05 17:20 | 27.91062 | -80.44495 | 25244 ft | 456 kts | 165° |
| 2026-05-05 17:20 | 27.88108 | -80.43308 | 24962 ft | 445 kts | 166° |
| 2026-05-05 17:20 | 27.85201 | -80.42143 | 24342 ft | 443 kts | 166° |
| 2026-05-05 17:20 | 27.82304 | -80.40984 | 23729 ft | 441 kts | 166° |
| 2026-05-05 17:21 | 27.79417 | -80.39831 | 22964 ft | 439 kts | 166° |
| 2026-05-05 17:21 | 27.76549 | -80.38683 | 22286 ft | 436 kts | 165° |
| 2026-05-05 17:21 | 27.73706 | -80.37545 | 21618 ft | 431 kts | 165° |
| 2026-05-05 17:22 | 27.68102 | -80.35303 | 20304 ft | 423 kts | 165° |
| 2026-05-05 17:22 | 27.65342 | -80.34172 | 19656 ft | 421 kts | 162° |
| 2026-05-05 17:22 | 27.62676 | -80.32840 | 19088 ft | 417 kts | 158° |
| 2026-05-05 17:22 | 27.60074 | -80.31415 | 18445 ft | 414 kts | 157° |
| 2026-05-05 17:23 | 27.57496 | -80.29985 | 17695 ft | 411 kts | 157° |
| 2026-05-05 17:23 | 27.54939 | -80.28591 | 17022 ft | 406 kts | 158° |
| 2026-05-05 17:23 | 27.52401 | -80.27238 | 16337 ft | 402 kts | 158° |
| 2026-05-05 17:23 | 27.49941 | -80.25939 | 15651 ft | 388 kts | 158° |
| 2026-05-05 17:24 | 27.47538 | -80.24674 | 15086 ft | 376 kts | 158° |
| 2026-05-05 17:24 | 27.45196 | -80.23442 | 14479 ft | 368 kts | 158° |
| 2026-05-05 17:24 | 27.42893 | -80.22231 | 13855 ft | 362 kts | 158° |
| 2026-05-05 17:24 | 27.40633 | -80.21042 | 13177 ft | 356 kts | 158° |
| 2026-05-05 17:25 | 27.38415 | -80.19876 | 12569 ft | 348 kts | 158° |
| 2026-05-05 17:25 | 27.36969 | -80.19116 | 12174 ft | 344 kts | 158° |
| 2026-05-05 17:25 | 27.34108 | -80.17612 | 11401 ft | 335 kts | 158° |
| 2026-05-05 17:25 | 27.32022 | -80.16516 | 10854 ft | 329 kts | 157° |
| 2026-05-05 17:26 | 27.29963 | -80.15435 | 10345 ft | 322 kts | 157° |
| 2026-05-05 17:26 | 27.28024 | -80.14415 | 10174 ft | 299 kts | 158° |
| 2026-05-05 17:26 | 27.26201 | -80.13456 | 10041 ft | 284 kts | 158° |
| 2026-05-05 17:26 | 27.24415 | -80.12550 | 9701 ft | 282 kts | 159° |
| 2026-05-05 17:27 | 27.22694 | -80.11719 | 9378 ft | 284 kts | 160° |
| 2026-05-05 17:27 | 27.20950 | -80.10883 | 9044 ft | 284 kts | 159° |
| 2026-05-05 17:27 | 27.19146 | -80.10015 | 8679 ft | 281 kts | 159° |
| 2026-05-05 17:27 | 27.17360 | -80.09151 | 8330 ft | 277 kts | 159° |
| 2026-05-05 17:28 | 27.15605 | -80.08301 | 7983 ft | 274 kts | 159° |
| 2026-05-05 17:28 | 27.13885 | -80.07469 | 7651 ft | 271 kts | 159° |
| 2026-05-05 17:28 | 27.12165 | -80.06627 | 7317 ft | 268 kts | 158° |
| 2026-05-05 17:28 | 27.10476 | -80.05790 | 6988 ft | 266 kts | 157° |
| 2026-05-05 17:29 | 27.08794 | -80.04955 | 6659 ft | 263 kts | 158° |
| 2026-05-05 17:29 | 27.07124 | -80.04128 | 6328 ft | 262 kts | 157° |
| 2026-05-05 17:29 | 27.05462 | -80.03305 | 5995 ft | 261 kts | 157° |
| 2026-05-05 17:29 | 27.03803 | -80.02484 | 5659 ft | 260 kts | 157° |
| 2026-05-05 17:30 | 27.02150 | -80.01666 | 5324 ft | 260 kts | 156° |
| 2026-05-05 17:30 | 27.00497 | -80.00849 | 5002 ft | 260 kts | 156° |
| 2026-05-05 17:30 | 26.98855 | -80.00038 | 4672 ft | 259 kts | 156° |
| 2026-05-05 17:30 | 26.97202 | -79.99224 | 4341 ft | 259 kts | 156° |
| 2026-05-05 17:31 | 26.95452 | -79.98836 | 4051 ft | 260 kts | 186° |
| 2026-05-05 17:31 | 26.93743 | -79.99487 | 4043 ft | 264 kts | 211° |
| 2026-05-05 17:31 | 26.92253 | -80.00703 | 4011 ft | 264 kts | 217° |
| 2026-05-05 17:31 | 26.90820 | -80.01974 | 3995 ft | 261 kts | 218° |
| 2026-05-05 17:32 | 26.89403 | -80.03226 | 3987 ft | 259 kts | 218° |
| 2026-05-05 17:32 | 26.87980 | -80.04466 | 3987 ft | 261 kts | 217° |
| 2026-05-05 17:32 | 26.86538 | -80.05712 | 3981 ft | 263 kts | 217° |
| 2026-05-05 17:32 | 26.85091 | -80.06959 | 3980 ft | 262 kts | 217° |
| 2026-05-05 17:33 | 26.83657 | -80.08200 | 3980 ft | 257 kts | 217° |
| 2026-05-05 17:33 | 26.82263 | -80.09414 | 3982 ft | 253 kts | 218° |
| 2026-05-05 17:33 | 26.81028 | -80.10759 | 3985 ft | 246 kts | 239° |
| 2026-05-05 17:33 | 26.80484 | -80.12548 | 3998 ft | 248 kts | 262° |
| 2026-05-05 17:34 | 26.80317 | -80.14476 | 3927 ft | 252 kts | 266° |
| 2026-05-05 17:34 | 26.80200 | -80.16448 | 3701 ft | 254 kts | 267° |
| 2026-05-05 17:34 | 26.80077 | -80.18409 | 3465 ft | 251 kts | 266° |
| 2026-05-05 17:34 | 26.79948 | -80.20349 | 3242 ft | 249 kts | 266° |
| 2026-05-05 17:35 | 26.79781 | -80.22259 | 3068 ft | 253 kts | 264° |
| 2026-05-05 17:35 | 26.79603 | -80.24241 | 3017 ft | 257 kts | 264° |
| 2026-05-05 17:35 | 26.79279 | -80.26184 | 2970 ft | 253 kts | 247° |
| 2026-05-05 17:35 | 26.78272 | -80.27775 | 2833 ft | 252 kts | 224° |
| 2026-05-05 17:36 | 26.77034 | -80.29103 | 2566 ft | 240 kts | 219° |
| 2026-05-05 17:36 | 26.75606 | -80.29897 | 2287 ft | 222 kts | 185° |
| 2026-05-05 17:36 | 26.74130 | -80.29897 | 2053 ft | 204 kts | 173° |
| 2026-05-05 17:36 | 26.72802 | -80.29633 | 1971 ft | 187 kts | 149° |
| 2026-05-05 17:37 | 26.71745 | -80.28894 | 2007 ft | 178 kts | 143° |
| 2026-05-05 17:37 | 26.71036 | -80.28389 | 2011 ft | 179 kts | 142° |
| 2026-05-05 17:37 | 26.69762 | -80.27227 | 2010 ft | 180 kts | 133° |
| 2026-05-05 17:37 | 26.69090 | -80.26101 | 1984 ft | 172 kts | 99° |
| 2026-05-05 17:38 | 26.68967 | -80.24763 | 2020 ft | 176 kts | 94° |
| 2026-05-05 17:38 | 26.68880 | -80.23411 | 2004 ft | 174 kts | 93° |
| 2026-05-05 17:38 | 26.68817 | -80.22090 | 1963 ft | 169 kts | 93° |
| 2026-05-05 17:38 | 26.68759 | -80.20825 | 1782 ft | 159 kts | 93° |
| 2026-05-05 17:39 | 26.68708 | -80.19660 | 1654 ft | 139 kts | 91° |
| 2026-05-05 17:39 | 26.68667 | -80.18721 | 1437 ft | 126 kts | 92° |
| 2026-05-05 17:39 | 26.68624 | -80.17745 | 1302 ft | 126 kts | 91° |
| 2026-05-05 17:39 | 26.68581 | -80.16782 | 1122 ft | 124 kts | 91° |
| 2026-05-05 17:40 | 26.68541 | -80.15806 | 983 ft | 122 kts | 91° |
| 2026-05-05 17:40 | 26.68502 | -80.14854 | 836 ft | 126 kts | 92° |
| 2026-05-05 17:40 | 26.68461 | -80.13863 | 698 ft | 132 kts | 92° |
| 2026-05-05 17:40 | 26.68415 | -80.12955 | 528 ft | 131 kts | 92° |
| 2026-05-05 17:41 | 26.68371 | -80.12137 | 386 ft | 125 kts | 92° |
| 2026-05-05 17:41 | 26.68342 | -80.11507 | 235 ft | 120 kts | 91° |
| 2026-05-05 17:41 | 26.68306 | -80.10621 | 59 ft | 120 kts | 90° |
| 2026-05-05 17:41 | 26.68270 | -80.09745 | 22 ft | 103 kts | 91° |
| 2026-05-05 17:42 | 26.68251 | -80.09177 | 21 ft | 42 kts | 92° |
| 2026-05-05 17:42 | 26.68241 | -80.08980 | 21 ft | 24 kts | 93° |
| 2026-05-05 17:42 | 26.68199 | -80.08870 | 21 ft | 14 kts | 194° |
| 2026-05-05 17:42 | 26.68154 | -80.08920 | 22 ft | 9 kts | 226° |
| 2026-05-05 17:43 | 26.68100 | -80.08979 | 21 ft | 13 kts | 224° |
| 2026-05-05 17:43 | 26.68022 | -80.09066 | 22 ft | 18 kts | 225° |
| 2026-05-05 17:43 | 26.67938 | -80.09163 | 21 ft | 15 kts | 236° |
| 2026-05-05 17:43 | 26.67985 | -80.09257 | 21 ft | 15 kts | 306° |
| 2026-05-05 17:44 | 26.68022 | -80.09366 | 21 ft | 17 kts | 272° |
| 2026-05-05 17:44 | 26.68028 | -80.09506 | 21 ft | 19 kts | 273° |
| 2026-05-05 17:44 | 26.68035 | -80.09664 | 21 ft | 22 kts | 272° |
| 2026-05-05 17:44 | 26.68043 | -80.09840 | 21 ft | 24 kts | 273° |
| 2026-05-05 17:45 | 26.68051 | -80.10029 | 21 ft | 23 kts | 272° |
| 2026-05-05 17:45 | 26.68059 | -80.10213 | 21 ft | 24 kts | 273° |
| 2026-05-05 17:45 | 26.68067 | -80.10391 | 21 ft | 23 kts | 272° |
| 2026-05-05 17:45 | 26.68075 | -80.10551 | 20 ft | 9 kts | 274° |
| 2026-05-05 17:46 | 26.68051 | -80.10582 | 22 ft | 4 kts | 179° |
| 2026-05-05 17:46 | 26.67996 | -80.10566 | 20 ft | 11 kts | 132° |
| 2026-05-05 17:46 | 26.67954 | -80.10534 | 20 ft | 3 kts | 183° |
| 2026-05-05 17:46 | 26.67930 | -80.10547 | 20 ft | 5 kts | 236° |
| 2026-05-05 17:47 | 26.67929 | -80.10593 | 20 ft | 7 kts | 271° |
| 2026-05-05 17:47 | 26.67929 | -80.10604 | 20 ft | 0 kts | 271° |